KJHN Airport (Stanton County Muni) Information

FAA: JHN - ICAO: KJHN

KJHN Airport Location

State Kansas
County Stanton
City Johnson
KJHN Airport is 2 miles northeast of Johnson, KS.
Latitude 37-35-07.4000N
Longitude 101-43-56.3000W
Elevation 3,325ft

KJHN Airport METARs

METAR KJHN 201815Z AUTO 34013G20KT 10SM CLR 35/18 A2977 RMK AO2 T03490178
Altimeter 29.77"
Temperature 34.9°C (94.8°F)
Wind 340° at 13KT with gusts to 20KT
Clouds Skies are clear.
Visibility 10.0mi
Time observed: 2021-06-20T18:15:00Z

KJHN Airport Details

Status Operational
Activation November 1971
Ownership Public
Usage Public
Chart WICHITA
ATC on-site No
Beacon schedule sunset-sunrise
Beacon color clear green

KJHN Airport Contacts

Owner STANTON COUNTY
Owner address 201 N MAIN ST, JOHNSON, KS 67855
Owner phone 620-492-2140
Manager MR. PIETER MILLER
Manager address 1100 N. AIRPORT ROAD, HUTCHINSON, KS 67504
Manager phone 620-694-2692

KJHN Airport (Stanton County Muni) Radio Frequencies

KJHN (Airport) Radio Frequencies

UNICOM 122.8
Common traffic advisory frequency (CTAF) 122.8